XUA1094 SVCN-SVMI
Flight info
| Callsign | XUA1094 |
|---|---|
| Flight time | 1h 8m |
| Altitude | 24000 |
| Route | CMA W20 CBL G678 SOM W20 CBC NETSI1 |
| Aircraft | B738/M-SDE2E3FGHIRWXY/LB1 |
Departure
| Time | 2026-05-07 22:44 |
|---|---|
| Airport | Canaima Airport (SVCN) |
Arrival
| Time | 2026-05-07 23:53 |
|---|---|
| Airport | Maiquetía Simón Bolívar International Airport (SVMI) |
| Time | Latitude | Longitude | Altitude | Speed | Heading |
|---|---|---|---|---|---|
| 2026-05-07 22:44 | 6.38027 | -62.90577 | 7308 ft | 269 kts | 342° |
| 2026-05-07 22:44 | 6.39200 | -62.91015 | 7839 ft | 273 kts | 342° |
| 2026-05-07 22:44 | 6.41068 | -62.91711 | 8687 ft | 277 kts | 342° |
| 2026-05-07 22:45 | 6.42896 | -62.92390 | 9496 ft | 282 kts | 341° |
| 2026-05-07 22:45 | 6.44723 | -62.93068 | 10288 ft | 285 kts | 341° |
| 2026-05-07 22:45 | 6.46605 | -62.93768 | 11058 ft | 289 kts | 341° |
| 2026-05-07 22:45 | 6.48512 | -62.94475 | 11835 ft | 293 kts | 341° |
| 2026-05-07 22:46 | 6.50443 | -62.95193 | 12602 ft | 297 kts | 341° |
| 2026-05-07 22:46 | 6.52396 | -62.95918 | 13362 ft | 301 kts | 341° |
| 2026-05-07 22:46 | 6.54378 | -62.96655 | 14128 ft | 306 kts | 340° |
| 2026-05-07 22:46 | 6.56393 | -62.97403 | 14891 ft | 310 kts | 340° |
| 2026-05-07 22:47 | 6.58408 | -62.98153 | 15649 ft | 314 kts | 340° |
| 2026-05-07 22:47 | 6.60481 | -62.98922 | 16393 ft | 318 kts | 340° |
| 2026-05-07 22:47 | 6.62587 | -62.99706 | 17111 ft | 323 kts | 339° |
| 2026-05-07 22:47 | 6.64715 | -63.00497 | 17811 ft | 328 kts | 339° |
| 2026-05-07 22:48 | 6.66848 | -63.01289 | 18511 ft | 332 kts | 339° |
| 2026-05-07 22:48 | 6.69030 | -63.02101 | 19185 ft | 336 kts | 339° |
| 2026-05-07 22:48 | 6.71235 | -63.02920 | 19845 ft | 341 kts | 339° |
| 2026-05-07 22:48 | 6.73491 | -63.03760 | 20505 ft | 346 kts | 339° |
| 2026-05-07 22:49 | 6.75742 | -63.04596 | 21143 ft | 350 kts | 339° |
| 2026-05-07 22:49 | 6.78045 | -63.05453 | 21775 ft | 355 kts | 338° |
| 2026-05-07 22:49 | 6.80381 | -63.06322 | 22378 ft | 359 kts | 338° |
| 2026-05-07 22:49 | 6.82742 | -63.07200 | 22978 ft | 363 kts | 338° |
| 2026-05-07 22:50 | 6.85138 | -63.08092 | 23556 ft | 368 kts | 338° |
| 2026-05-07 22:50 | 6.87556 | -63.08991 | 24116 ft | 372 kts | 338° |
| 2026-05-07 22:50 | 6.89999 | -63.09900 | 24676 ft | 376 kts | 338° |
| 2026-05-07 22:50 | 6.92459 | -63.10816 | 25258 ft | 379 kts | 338° |
| 2026-05-07 22:51 | 6.94920 | -63.11732 | 25838 ft | 382 kts | 338° |
| 2026-05-07 22:51 | 6.97424 | -63.12664 | 26415 ft | 384 kts | 337° |
| 2026-05-07 22:51 | 6.99949 | -63.13604 | 26976 ft | 387 kts | 337° |
| 2026-05-07 22:51 | 7.02479 | -63.14544 | 27528 ft | 389 kts | 338° |
| 2026-05-07 22:52 | 7.05035 | -63.15450 | 28050 ft | 392 kts | 338° |
| 2026-05-07 22:52 | 7.07631 | -63.16356 | 28563 ft | 394 kts | 338° |
| 2026-05-07 22:52 | 7.10229 | -63.17266 | 29061 ft | 397 kts | 338° |
| 2026-05-07 22:52 | 7.12826 | -63.18180 | 29528 ft | 399 kts | 338° |
| 2026-05-07 22:53 | 7.15444 | -63.19105 | 30000 ft | 401 kts | 338° |
| 2026-05-07 22:53 | 7.18094 | -63.20039 | 30463 ft | 404 kts | 338° |
| 2026-05-07 22:53 | 7.20752 | -63.20977 | 30925 ft | 406 kts | 338° |
| 2026-05-07 22:53 | 7.23427 | -63.21921 | 31368 ft | 408 kts | 338° |
| 2026-05-07 22:54 | 7.26119 | -63.22871 | 31801 ft | 410 kts | 338° |
| 2026-05-07 22:54 | 7.28817 | -63.23823 | 32214 ft | 411 kts | 338° |
| 2026-05-07 22:54 | 7.31500 | -63.24771 | 32600 ft | 413 kts | 337° |
| 2026-05-07 22:54 | 7.34226 | -63.25733 | 32986 ft | 415 kts | 338° |
| 2026-05-07 22:55 | 7.36963 | -63.26699 | 33361 ft | 416 kts | 338° |
| 2026-05-07 22:55 | 7.39703 | -63.27667 | 33731 ft | 418 kts | 337° |
| 2026-05-07 22:55 | 7.42435 | -63.28631 | 34078 ft | 419 kts | 337° |
| 2026-05-07 22:55 | 7.45209 | -63.29611 | 34421 ft | 421 kts | 337° |
| 2026-05-07 22:56 | 7.47989 | -63.30593 | 34742 ft | 423 kts | 337° |
| 2026-05-07 22:56 | 7.50746 | -63.31567 | 35053 ft | 425 kts | 337° |
| 2026-05-07 22:56 | 7.53540 | -63.32555 | 35365 ft | 427 kts | 337° |
| 2026-05-07 22:56 | 7.56349 | -63.33547 | 35650 ft | 429 kts | 337° |
| 2026-05-07 22:57 | 7.59179 | -63.34548 | 35896 ft | 431 kts | 337° |
| 2026-05-07 22:57 | 7.64953 | -63.36589 | 35921 ft | 444 kts | 337° |
| 2026-05-07 22:58 | 7.70800 | -63.38657 | 35925 ft | 449 kts | 337° |
| 2026-05-07 22:58 | 7.76730 | -63.40754 | 35934 ft | 453 kts | 337° |
| 2026-05-07 22:59 | 7.82676 | -63.42858 | 35931 ft | 457 kts | 337° |
| 2026-05-07 22:59 | 7.88706 | -63.44992 | 35932 ft | 460 kts | 337° |
| 2026-05-07 23:00 | 7.94788 | -63.47146 | 35932 ft | 464 kts | 337° |
| 2026-05-07 23:00 | 8.00851 | -63.49293 | 35931 ft | 465 kts | 338° |
| 2026-05-07 23:01 | 8.06976 | -63.51463 | 35927 ft | 465 kts | 337° |
| 2026-05-07 23:01 | 8.12840 | -63.54127 | 35934 ft | 455 kts | 323° |
| 2026-05-07 23:02 | 8.17942 | -63.57796 | 35934 ft | 452 kts | 320° |
| 2026-05-07 23:02 | 8.23008 | -63.61599 | 35929 ft | 453 kts | 320° |
| 2026-05-07 23:03 | 8.28078 | -63.65425 | 35930 ft | 455 kts | 320° |
| 2026-05-07 23:03 | 8.33132 | -63.69265 | 35927 ft | 455 kts | 320° |
| 2026-05-07 23:04 | 8.38195 | -63.73121 | 35928 ft | 456 kts | 320° |
| 2026-05-07 23:04 | 8.43248 | -63.76968 | 35931 ft | 456 kts | 320° |
| 2026-05-07 23:05 | 8.48327 | -63.80838 | 35928 ft | 457 kts | 320° |
| 2026-05-07 23:05 | 8.53409 | -63.84711 | 35932 ft | 457 kts | 320° |
| 2026-05-07 23:06 | 8.58454 | -63.88557 | 35931 ft | 456 kts | 320° |
| 2026-05-07 23:06 | 8.63526 | -63.92425 | 35927 ft | 456 kts | 319° |
| 2026-05-07 23:07 | 8.68595 | -63.96292 | 35930 ft | 456 kts | 320° |
| 2026-05-07 23:07 | 8.73673 | -64.00167 | 35930 ft | 457 kts | 319° |
| 2026-05-07 23:08 | 8.78710 | -64.04013 | 35926 ft | 456 kts | 319° |
| 2026-05-07 23:08 | 8.83784 | -64.07887 | 35926 ft | 455 kts | 319° |
| 2026-05-07 23:09 | 8.88846 | -64.11755 | 35930 ft | 455 kts | 319° |
| 2026-05-07 23:09 | 8.93794 | -64.15699 | 35939 ft | 452 kts | 312° |
| 2026-05-07 23:10 | 8.98082 | -64.20303 | 35940 ft | 449 kts | 309° |
| 2026-05-07 23:10 | 9.02282 | -64.24963 | 35928 ft | 449 kts | 309° |
| 2026-05-07 23:11 | 9.06492 | -64.29660 | 35929 ft | 450 kts | 309° |
| 2026-05-07 23:11 | 9.10696 | -64.34378 | 35934 ft | 450 kts | 308° |
| 2026-05-07 23:12 | 9.14877 | -64.39070 | 35930 ft | 451 kts | 308° |
| 2026-05-07 23:12 | 9.19084 | -64.43794 | 35928 ft | 450 kts | 308° |
| 2026-05-07 23:13 | 9.23255 | -64.48480 | 35930 ft | 450 kts | 308° |
| 2026-05-07 23:13 | 9.27457 | -64.53201 | 35931 ft | 450 kts | 308° |
| 2026-05-07 23:14 | 9.31653 | -64.57918 | 35928 ft | 450 kts | 308° |
| 2026-05-07 23:14 | 9.35820 | -64.62604 | 35927 ft | 450 kts | 308° |
| 2026-05-07 23:15 | 9.40023 | -64.67332 | 35929 ft | 450 kts | 308° |
| 2026-05-07 23:15 | 9.44191 | -64.72023 | 35929 ft | 450 kts | 308° |
| 2026-05-07 23:16 | 9.48320 | -64.76802 | 35934 ft | 449 kts | 307° |
| 2026-05-07 23:16 | 9.52426 | -64.81595 | 35931 ft | 449 kts | 307° |
| 2026-05-07 23:17 | 9.56505 | -64.86351 | 35929 ft | 449 kts | 307° |
| 2026-05-07 23:17 | 9.60607 | -64.91133 | 35929 ft | 449 kts | 307° |
| 2026-05-07 23:18 | 9.64709 | -64.95918 | 35928 ft | 449 kts | 307° |
| 2026-05-07 23:18 | 9.68803 | -65.00694 | 35926 ft | 449 kts | 307° |
| 2026-05-07 23:19 | 9.72897 | -65.05473 | 35926 ft | 448 kts | 307° |
| 2026-05-07 23:19 | 9.76963 | -65.10222 | 35929 ft | 448 kts | 307° |
| 2026-05-07 23:20 | 9.81053 | -65.15000 | 35929 ft | 448 kts | 307° |
| 2026-05-07 23:20 | 9.85144 | -65.19781 | 35926 ft | 448 kts | 307° |
| 2026-05-07 23:21 | 9.89224 | -65.24552 | 35929 ft | 448 kts | 307° |
| 2026-05-07 23:21 | 9.92624 | -65.28528 | 35927 ft | 447 kts | 307° |
| 2026-05-07 23:22 | 9.96673 | -65.33265 | 35930 ft | 447 kts | 307° |
| 2026-05-07 23:22 | 10.00753 | -65.38043 | 35928 ft | 446 kts | 307° |
| 2026-05-07 23:23 | 10.04826 | -65.42811 | 35928 ft | 446 kts | 307° |
| 2026-05-07 23:23 | 10.08875 | -65.47559 | 35934 ft | 446 kts | 307° |
| 2026-05-07 23:24 | 10.12916 | -65.52338 | 35941 ft | 446 kts | 307° |
| 2026-05-07 23:24 | 10.16965 | -65.57127 | 35932 ft | 446 kts | 307° |
| 2026-05-07 23:25 | 10.21006 | -65.61908 | 35939 ft | 445 kts | 307° |
| 2026-05-07 23:25 | 10.25018 | -65.66656 | 35942 ft | 445 kts | 307° |
| 2026-05-07 23:26 | 10.29056 | -65.71437 | 35943 ft | 443 kts | 307° |
| 2026-05-07 23:26 | 10.33008 | -65.76118 | 35941 ft | 429 kts | 307° |
| 2026-05-07 23:27 | 10.38677 | -65.82837 | 35945 ft | 408 kts | 307° |
| 2026-05-07 23:27 | 10.42348 | -65.87192 | 35414 ft | 412 kts | 307° |
| 2026-05-07 23:28 | 10.44237 | -65.89432 | 34638 ft | 420 kts | 307° |
| 2026-05-07 23:28 | 10.46129 | -65.91676 | 33858 ft | 424 kts | 306° |
| 2026-05-07 23:28 | 10.48052 | -65.93959 | 33064 ft | 428 kts | 306° |
| 2026-05-07 23:28 | 10.50001 | -65.96272 | 32261 ft | 432 kts | 307° |
| 2026-05-07 23:29 | 10.51977 | -65.98617 | 31447 ft | 436 kts | 307° |
| 2026-05-07 23:29 | 10.53939 | -66.00947 | 30638 ft | 440 kts | 307° |
| 2026-05-07 23:29 | 10.55937 | -66.03319 | 29809 ft | 443 kts | 307° |
| 2026-05-07 23:29 | 10.57899 | -66.05752 | 29033 ft | 444 kts | 304° |
| 2026-05-07 23:30 | 10.59721 | -66.08290 | 28214 ft | 445 kts | 303° |
| 2026-05-07 23:30 | 10.61529 | -66.10842 | 27383 ft | 447 kts | 303° |
| 2026-05-07 23:30 | 10.63353 | -66.13416 | 26548 ft | 449 kts | 303° |
| 2026-05-07 23:30 | 10.65188 | -66.16002 | 25813 ft | 449 kts | 303° |
| 2026-05-07 23:31 | 10.66988 | -66.18536 | 25240 ft | 444 kts | 304° |
| 2026-05-07 23:31 | 10.68779 | -66.21055 | 24704 ft | 438 kts | 304° |
| 2026-05-07 23:31 | 10.70575 | -66.23583 | 24177 ft | 439 kts | 304° |
| 2026-05-07 23:31 | 10.72371 | -66.26108 | 23648 ft | 440 kts | 304° |
| 2026-05-07 23:32 | 10.74147 | -66.28602 | 23128 ft | 440 kts | 304° |
| 2026-05-07 23:32 | 10.75955 | -66.31143 | 22604 ft | 438 kts | 304° |
| 2026-05-07 23:32 | 10.77721 | -66.33629 | 21985 ft | 437 kts | 304° |
| 2026-05-07 23:32 | 10.79232 | -66.36286 | 21388 ft | 430 kts | 293° |
| 2026-05-07 23:33 | 10.80158 | -66.39158 | 20935 ft | 424 kts | 281° |
| 2026-05-07 23:33 | 10.80509 | -66.42133 | 20455 ft | 423 kts | 271° |
| 2026-05-07 23:33 | 10.80345 | -66.45079 | 19964 ft | 421 kts | 263° |
| 2026-05-07 23:33 | 10.79921 | -66.48021 | 19428 ft | 419 kts | 261° |
| 2026-05-07 23:34 | 10.79447 | -66.50943 | 18917 ft | 417 kts | 260° |
| 2026-05-07 23:34 | 10.78965 | -66.53848 | 18417 ft | 414 kts | 260° |
| 2026-05-07 23:34 | 10.78483 | -66.56733 | 17921 ft | 413 kts | 260° |
| 2026-05-07 23:34 | 10.78000 | -66.59605 | 17429 ft | 410 kts | 260° |
| 2026-05-07 23:35 | 10.77525 | -66.62409 | 16943 ft | 404 kts | 260° |
| 2026-05-07 23:35 | 10.77048 | -66.65213 | 16467 ft | 397 kts | 260° |
| 2026-05-07 23:35 | 10.76577 | -66.67964 | 15996 ft | 391 kts | 261° |
| 2026-05-07 23:35 | 10.76111 | -66.70670 | 15528 ft | 385 kts | 260° |
| 2026-05-07 23:36 | 10.75649 | -66.73335 | 15074 ft | 380 kts | 260° |
| 2026-05-07 23:36 | 10.75198 | -66.75937 | 14628 ft | 374 kts | 260° |
| 2026-05-07 23:36 | 10.74749 | -66.78527 | 14184 ft | 369 kts | 260° |
| 2026-05-07 23:36 | 10.74304 | -66.81085 | 13745 ft | 363 kts | 260° |
| 2026-05-07 23:37 | 10.73867 | -66.83602 | 13313 ft | 358 kts | 260° |
| 2026-05-07 23:37 | 10.73440 | -66.86061 | 12895 ft | 344 kts | 260° |
| 2026-05-07 23:37 | 10.73034 | -66.88395 | 12488 ft | 325 kts | 260° |
| 2026-05-07 23:37 | 10.72740 | -66.90603 | 12134 ft | 312 kts | 268° |
| 2026-05-07 23:38 | 10.72698 | -66.92784 | 11757 ft | 306 kts | 270° |
| 2026-05-07 23:38 | 10.72704 | -66.94934 | 11386 ft | 301 kts | 271° |
| 2026-05-07 23:38 | 10.72713 | -66.97047 | 11026 ft | 297 kts | 270° |
| 2026-05-07 23:38 | 10.72719 | -66.99138 | 10673 ft | 297 kts | 270° |
| 2026-05-07 23:39 | 10.72723 | -67.01240 | 10318 ft | 296 kts | 270° |
| 2026-05-07 23:39 | 10.72724 | -67.03339 | 9964 ft | 296 kts | 269° |
| 2026-05-07 23:39 | 10.72719 | -67.05435 | 9610 ft | 295 kts | 269° |
| 2026-05-07 23:39 | 10.72715 | -67.07541 | 9246 ft | 301 kts | 269° |
| 2026-05-07 23:40 | 10.72711 | -67.09670 | 8892 ft | 299 kts | 269° |
| 2026-05-07 23:40 | 10.72706 | -67.11747 | 8540 ft | 296 kts | 269° |
| 2026-05-07 23:40 | 10.72702 | -67.13828 | 8194 ft | 293 kts | 269° |
| 2026-05-07 23:40 | 10.72697 | -67.15889 | 7838 ft | 290 kts | 269° |
| 2026-05-07 23:41 | 10.72693 | -67.17942 | 7490 ft | 288 kts | 269° |
| 2026-05-07 23:41 | 10.72689 | -67.19973 | 7155 ft | 286 kts | 269° |
| 2026-05-07 23:41 | 10.72688 | -67.21961 | 6819 ft | 283 kts | 269° |
| 2026-05-07 23:41 | 10.72703 | -67.23961 | 6465 ft | 282 kts | 270° |
| 2026-05-07 23:42 | 10.72717 | -67.25954 | 6144 ft | 279 kts | 270° |
| 2026-05-07 23:42 | 10.72728 | -67.27926 | 5811 ft | 278 kts | 270° |
| 2026-05-07 23:42 | 10.72738 | -67.29888 | 5483 ft | 277 kts | 270° |
| 2026-05-07 23:42 | 10.72748 | -67.31844 | 5160 ft | 276 kts | 270° |
| 2026-05-07 23:43 | 10.72760 | -67.33800 | 4833 ft | 275 kts | 270° |
| 2026-05-07 23:43 | 10.72769 | -67.35720 | 4511 ft | 274 kts | 270° |
| 2026-05-07 23:43 | 10.72780 | -67.37666 | 4182 ft | 274 kts | 270° |
| 2026-05-07 23:43 | 10.72671 | -67.39574 | 4055 ft | 267 kts | 255° |
| 2026-05-07 23:44 | 10.71828 | -67.41223 | 4066 ft | 262 kts | 225° |
| 2026-05-07 23:44 | 10.70343 | -67.42233 | 4072 ft | 257 kts | 195° |
| 2026-05-07 23:44 | 10.68618 | -67.42374 | 4070 ft | 251 kts | 166° |
| 2026-05-07 23:44 | 10.67071 | -67.41631 | 4065 ft | 246 kts | 136° |
| 2026-05-07 23:45 | 10.66133 | -67.40214 | 4074 ft | 243 kts | 106° |
| 2026-05-07 23:45 | 10.66013 | -67.38503 | 4085 ft | 247 kts | 84° |
| 2026-05-07 23:45 | 10.66253 | -67.36751 | 4035 ft | 250 kts | 81° |
| 2026-05-07 23:45 | 10.66524 | -67.35027 | 4007 ft | 251 kts | 82° |
| 2026-05-07 23:46 | 10.66620 | -67.33259 | 4030 ft | 250 kts | 98° |
| 2026-05-07 23:46 | 10.66060 | -67.31580 | 4102 ft | 254 kts | 114° |
| 2026-05-07 23:46 | 10.65221 | -67.29985 | 4112 ft | 256 kts | 118° |
| 2026-05-07 23:46 | 10.64336 | -67.28413 | 4114 ft | 256 kts | 118° |
| 2026-05-07 23:47 | 10.63444 | -67.26847 | 4111 ft | 255 kts | 118° |
| 2026-05-07 23:47 | 10.62565 | -67.25314 | 4112 ft | 253 kts | 119° |
| 2026-05-07 23:47 | 10.61673 | -67.23760 | 4111 ft | 254 kts | 118° |
| 2026-05-07 23:47 | 10.60777 | -67.22203 | 4089 ft | 256 kts | 118° |
| 2026-05-07 23:48 | 10.60098 | -67.20568 | 4077 ft | 237 kts | 102° |
| 2026-05-07 23:48 | 10.59914 | -67.19032 | 4052 ft | 204 kts | 92° |
| 2026-05-07 23:48 | 10.59878 | -67.17668 | 3814 ft | 186 kts | 90° |
| 2026-05-07 23:48 | 10.59849 | -67.16403 | 3349 ft | 177 kts | 89° |
| 2026-05-07 23:49 | 10.59845 | -67.15189 | 2951 ft | 164 kts | 88° |
| 2026-05-07 23:49 | 10.59854 | -67.14081 | 2718 ft | 149 kts | 88° |
| 2026-05-07 23:49 | 10.59867 | -67.13060 | 2509 ft | 140 kts | 87° |
| 2026-05-07 23:49 | 10.59883 | -67.12083 | 2322 ft | 137 kts | 89° |
| 2026-05-07 23:50 | 10.59901 | -67.11114 | 2136 ft | 137 kts | 89° |
| 2026-05-07 23:50 | 10.59924 | -67.10154 | 1962 ft | 138 kts | 89° |
| 2026-05-07 23:50 | 10.59953 | -67.09176 | 1779 ft | 138 kts | 89° |
| 2026-05-07 23:50 | 10.59985 | -67.08193 | 1592 ft | 139 kts | 89° |
| 2026-05-07 23:51 | 10.60020 | -67.07209 | 1403 ft | 139 kts | 89° |
| 2026-05-07 23:51 | 10.60051 | -67.06224 | 1217 ft | 139 kts | 89° |
| 2026-05-07 23:51 | 10.60082 | -67.05239 | 1032 ft | 139 kts | 89° |
| 2026-05-07 23:51 | 10.60113 | -67.04246 | 838 ft | 140 kts | 90° |
| 2026-05-07 23:52 | 10.60130 | -67.03248 | 590 ft | 142 kts | 91° |
| 2026-05-07 23:52 | 10.60161 | -67.02266 | 382 ft | 140 kts | 88° |
| 2026-05-07 23:52 | 10.60200 | -67.01293 | 276 ft | 135 kts | 90° |
| 2026-05-07 23:52 | 10.60238 | -67.00378 | 222 ft | 108 kts | 88° |
| 2026-05-07 23:53 | 10.60255 | -66.99846 | 215 ft | 51 kts | 88° |
| 2026-05-07 23:53 | 10.60236 | -66.99671 | 208 ft | 9 kts | 146° |
| 2026-05-07 23:53 | 10.60174 | -66.99668 | 209 ft | 8 kts | 190° |
| 2026-05-07 23:53 | 10.60145 | -66.99697 | 211 ft | 8 kts | 249° |
| 2026-05-07 23:54 | 10.60139 | -66.99774 | 214 ft | 11 kts | 268° |
| 2026-05-07 23:54 | 10.60136 | -66.99845 | 216 ft | 9 kts | 268° |
| 2026-05-07 23:54 | 10.60130 | -66.99900 | 218 ft | 5 kts | 254° |
| 2026-05-07 23:54 | 10.60116 | -66.99911 | 218 ft | 5 kts | 208° |
| 2026-05-07 23:55 | 10.60062 | -66.99916 | 218 ft | 8 kts | 180° |
| 2026-05-07 23:55 | 10.60003 | -66.99914 | 223 ft | 9 kts | 178° |
| 2026-05-07 23:55 | 10.59944 | -66.99914 | 219 ft | 6 kts | 185° |
| 2026-05-07 23:55 | 10.59918 | -66.99925 | 222 ft | 6 kts | 203° |
| 2026-05-07 23:56 | 10.59865 | -66.99928 | 220 ft | 8 kts | 179° |
| 2026-05-07 23:56 | 10.59837 | -66.99928 | 220 ft | 0 kts | 178° |